Time;durP1;ratioP1;P1;durP2;ratioP2;P2;SDS_P1;SDS_P2;PMS_P1;PMS_P2;Temp;Humidity;BMP_temperature;BMP_pressure;BME280_temperature;BME280_humidity;BME280_pressure;Samples;Min_cycle;Max_cycle;Signal;HPM_P1;HPM_P2
2023/04/14 00:01:00;;;;;;;14.00;2.80;;;;;;;;;;4852739;29;20059;-81
2023/04/14 00:03:26;;;;;;;16.30;2.63;;;;;;;;;;4849488;29;20061;-81
2023/04/14 00:05:52;;;;;;;8.48;2.85;;;;;;;;;;4856790;29;20034;-82
2023/04/14 00:08:18;;;;;;;14.90;2.63;;;;;;;;;;4856182;29;20042;-81
2023/04/14 00:10:44;;;;;;;10.52;2.63;;;;;;;;;;4841190;29;20113;-81
2023/04/14 00:13:10;;;;;;;12.25;3.92;;;;;;;;;;4837232;29;20041;-80
2023/04/14 00:15:45;;;;;;;15.70;3.03;;;;;;;;;;4840126;29;20034;-81
2023/04/14 00:18:11;;;;;;;10.10;3.33;;;;;;;;;;4839878;29;20109;-81
2023/04/14 00:20:37;;;;;;;12.77;2.50;;;;;;;;;;4835890;29;20046;-81
2023/04/14 00:23:04;;;;;;;11.02;3.00;;;;;;;;;;4839038;29;20037;-81
2023/04/14 00:25:30;;;;;;;12.18;2.63;;;;;;;;;;4838941;29;20121;-81
2023/04/14 00:27:56;;;;;;;13.32;2.60;;;;;;;;;;4831841;29;20054;-80
2023/04/14 00:30:22;;;;;;;9.50;2.58;;;;;;;;;;4836988;29;20501;-80
2023/04/14 00:32:51;;;;;;;14.35;2.72;;;;;;;;;;4836670;29;20180;-79
2023/04/14 00:35:17;;;;;;;9.43;1.98;;;;;;;;;;4821690;29;20130;-80
2023/04/14 00:37:55;;;;;;;9.43;2.13;;;;;;;;;;4840148;29;20392;-80
2023/04/14 00:40:22;;;;;;;19.25;3.63;;;;;;;;;;4838292;29;20030;-80
2023/04/14 00:42:56;;;;;;;37.70;4.75;;;;;;;;;;4838512;29;20037;-81
2023/04/14 00:45:24;;;;;;;19.52;2.75;;;;;;;;;;4835503;29;20098;-80
2023/04/14 00:47:50;;;;;;;10.90;2.75;;;;;;;;;;4837817;29;20029;-80
2023/04/14 00:50:20;;;;;;;12.00;3.17;;;;;;;;;;4835743;29;20030;-80
2023/04/14 00:52:47;;;;;;;8.63;1.95;;;;;;;;;;4822221;29;20442;-81
2023/04/14 00:55:14;;;;;;;11.55;2.60;;;;;;;;;;4836259;29;20053;-81
2023/04/14 00:57:51;;;;;;;12.30;2.30;;;;;;;;;;4831445;29;20539;-80
2023/04/14 01:00:20;;;;;;;10.25;2.47;;;;;;;;;;4831488;29;20481;-79
2023/04/14 01:03:07;;;;;;;13.05;2.95;;;;;;;;;;4833919;29;20041;-80
2023/04/14 01:05:33;;;;;;;11.43;2.65;;;;;;;;;;4837158;29;20791;-81
2023/04/14 01:08:03;;;;;;;7.88;2.10;;;;;;;;;;4833529;29;20042;-81
2023/04/14 01:10:40;;;;;;;18.05;3.35;;;;;;;;;;4836731;29;20112;-81
2023/04/14 01:13:12;;;;;;;14.95;2.85;;;;;;;;;;4835405;29;20049;-80
2023/04/14 01:15:43;;;;;;;16.13;2.83;;;;;;;;;;4811920;29;20069;-80
2023/04/14 01:18:59;;;;;;;12.70;2.70;;;4.60;99.90;;;;;;4797162;29;20064;-80
2023/04/14 01:21:30;;;;;;;11.30;2.03;;;;;;;;;;4804493;29;20066;-80
2023/04/14 01:24:19;;;;;;;16.40;2.65;;;;;;;;;;4801755;29;20050;-80
2023/04/14 01:27:01;;;;;;;12.48;2.58;;;;;;;;;;4795733;29;20043;-80
2023/04/14 01:29:50;;;;;;;9.52;2.25;;;;;;;;;;4800228;29;20045;-80
2023/04/14 01:32:19;;;;;;;11.68;2.45;;;;;;;;;;4812720;29;20049;-79
2023/04/14 01:34:48;;;;;;;22.67;2.67;;;;;;;;;;4819714;29;20032;-79
2023/04/14 01:37:16;;;;;;;9.10;2.10;;;;;;;;;;4814754;29;20078;-80
2023/04/14 01:39:52;;;;;;;6.22;2.58;;;;;;;;;;4824350;29;20045;-80
2023/04/14 01:42:22;;;;;;;13.05;2.03;;;;;;;;;;4854986;29;20033;-80
2023/04/14 01:44:51;;;;;;;16.88;2.50;;;;;;;;;;4840742;29;20038;-80
2023/04/14 01:47:22;;;;;;;10.55;2.85;;;;;;;;;;4839956;29;20094;-80
2023/04/14 01:49:52;;;;;;;14.80;4.07;;;;;;;;;;4839067;29;20038;-80
2023/04/14 01:52:19;;;;;;;12.82;3.25;;;;;;;;;;4856232;29;20042;-80
2023/04/14 01:54:46;;;;;;;11.90;2.53;;;;;;;;;;4841752;29;20502;-80
2023/04/14 01:57:13;;;;;;;12.15;2.55;;;;;;;;;;4852378;29;20150;-81
2023/04/14 01:59:46;;;;;;;13.55;3.15;;;;;;;;;;4852007;29;20037;-80
2023/04/14 02:02:13;;;;;;;14.88;2.70;;;;;;;;;;4839124;29;20029;-81
2023/04/14 02:04:40;;;;;;;12.90;2.55;;;;;;;;;;4839635;29;20041;-80
2023/04/14 02:07:07;;;;;;;15.75;3.22;;;;;;;;;;4837334;29;20468;-82
2023/04/14 02:09:34;;;;;;;7.35;1.92;;;;;;;;;;4837965;29;20078;-81
2023/04/14 02:12:00;;;;;;;9.07;2.72;;;;;;;;;;4849712;29;20036;-80
2023/04/14 02:14:27;;;;;;;12.32;3.45;;;;;;;;;;4849276;29;20643;-80
2023/04/14 02:16:56;;;;;;;11.50;3.42;;;;;;;;;;4821655;29;20141;-80
2023/04/14 02:19:22;;;;;;;11.07;3.15;;;;;;;;;;4841988;29;20026;-80
2023/04/14 02:21:52;;;;;;;13.43;2.33;;;;;;;;;;4833685;29;20052;-80
2023/04/14 02:24:19;;;;;;;13.05;2.30;;;;;;;;;;4838756;29;20525;-80
2023/04/14 02:26:54;;;;;;;16.25;2.95;;;;;;;;;;4837750;29;20161;-80
2023/04/14 02:29:21;;;;;;;11.07;2.58;;;;;;;;;;4853291;29;20029;-80
2023/04/14 02:32:11;;;;;;;6.85;2.45;;;;;;;;;;4837639;29;20045;-80
2023/04/14 02:34:58;;;;;;;8.25;2.00;;;;;;;;;;4848162;29;20061;-80
2023/04/14 02:37:53;;;;;;;8.35;1.92;;;;;;;;;;4848655;29;20483;-80
2023/04/14 02:40:54;;;;;;;12.57;2.72;;;;;;;;;;4817651;29;20034;-81
2023/04/14 02:43:23;;;;;;;6.82;2.15;;;;;;;;;;4828498;29;20054;-81
2023/04/14 02:45:55;;;;;;;6.57;2.22;;;;;;;;;;4829541;29;20098;-81
2023/04/14 02:48:26;;;;;;;10.55;2.63;;;;;;;;;;4802428;29;20107;-80
2023/04/14 02:50:54;;;;;;;14.30;3.17;;;;;;;;;;4818112;29;20396;-80
2023/04/14 02:53:22;;;;;;;14.13;2.75;;;;;;;;;;4817744;29;20072;-80
2023/04/14 02:55:50;;;;;;;12.88;2.72;;;;;;;;;;4827750;29;20030;-80
2023/04/14 02:58:17;;;;;;;12.70;2.60;;;;;;;;;;4828448;29;20038;-80
2023/04/14 03:00:44;;;;;;;9.23;2.20;;;;;;;;;;4830565;29;20022;-80
2023/04/14 03:03:11;;;;;;;12.73;2.22;;;;;;;;;;4824816;29;20136;-81
2023/04/14 03:05:40;;;;;;;7.82;2.33;;;;;;;;;;4818035;29;20451;-81
2023/04/14 03:08:07;;;;;;;12.85;2.40;;;;;;;;;;4820576;29;20077;-81
2023/04/14 03:10:33;;;;;;;8.80;2.42;;;;;;;;;;4813593;29;20489;-81
2023/04/14 03:13:01;;;;;;;14.77;2.58;;;;;;;;;;4822426;29;20034;-80
2023/04/14 03:15:27;;;;;;;14.25;2.60;;;;;;;;;;4831943;29;20030;-80
2023/04/14 03:17:56;;;;;;;8.20;2.20;;;;;;;;;;4844267;29;20054;-80
2023/04/14 03:20:22;;;;;;;6.88;2.20;;;;;;;;;;4849005;29;20025;-80
2023/04/14 03:23:05;;;;;;;11.55;3.55;;;;;;;;;;4849173;29;20124;-80
2023/04/14 03:25:31;;;;;;;;;;;;;;;;;;4854573;29;20028;-79
2023/04/14 03:27:59;;;;;;;13.18;2.28;;;;;;;;;;4848759;29;19920;-80
2023/04/14 03:30:29;;;;;;;9.57;2.72;;;;;;;;;;4847253;29;20460;-80
2023/04/14 03:32:59;;;;;;;10.68;2.58;;;;;;;;;;4834268;29;20667;-80
2023/04/14 03:38:26;;;;;;;11.23;2.35;;;;;;;;;;4833410;29;20036;-80
2023/04/14 03:41:04;;;;;;;11.38;2.63;;;;;;;;;;4846204;29;20046;-79
2023/04/14 03:43:53;;;;;;;6.45;2.20;;;;;;;;;;4845068;29;20508;-79
2023/04/14 03:46:20;;;;;;;9.65;3.25;;;;;;;;;;4844020;29;20055;-81
2023/04/14 03:49:05;;;;;;;9.35;2.42;;;;;;;;;;4826374;29;20039;-81
2023/04/14 03:51:46;;;;;;;11.32;3.15;;;;;;;;;;4838875;29;20052;-82
2023/04/14 03:57:22;;;;;;;226.05;139.88;;;;;;;;;;4827767;29;20068;-81
2023/04/14 03:59:49;;;;;;;12.55;4.95;;;;;;;;;;4849097;29;20038;-86
2023/04/14 04:02:15;;;;;;;85.05;44.80;;;;;;;;;;4853849;29;20030;-84
2023/04/14 04:04:42;;;;;;;8.93;2.72;;;;;;;;;;4834999;29;20101;-82
2023/04/14 04:07:11;;;;;;;6.82;2.90;;;;;;;;;;4845043;29;20062;-82
2023/04/14 04:09:38;;;;;;;11.30;2.80;;;;;;;;;;4839692;29;20037;-82
2023/04/14 04:12:05;;;;;;;9.35;2.90;;;;;;;;;;4825093;29;20479;-82
2023/04/14 04:22:48;;;;;;;9.38;2.30;;;;;;;;;;5712116;23;20070;-80
2023/04/14 04:25:14;;;;;;;18.27;2.63;;;;;;;;;;4810734;29;20039;-80
2023/04/14 04:28:26;;;;;;;11.77;2.90;;;;;;;;;;4808320;29;20035;-78
2023/04/14 04:31:17;;;;;;;;;;;;;;;;;;;;;
2023/04/14 04:37:27;;;;;;;15.65;2.92;;;;;;;;;;4797913;29;20046;-80
2023/04/14 04:43:05;;;;;;;9.88;2.30;;;;;;;;;;4777522;29;20042;-82
2023/04/14 04:45:50;;;;;;;16.48;5.32;;;;;;;;;;4778168;29;20897;-80
2023/04/14 04:48:16;;;;;;;67.68;28.48;;;;;;;;;;4810736;29;20061;-82
2023/04/14 04:50:45;;;;;;;8.60;3.45;;;;;;;;;;4783409;29;20172;-80
2023/04/14 04:53:14;;;;;;;13.00;2.97;;;;;;;;;;4808422;29;20062;-82
2023/04/14 04:58:37;;;;;;;11.25;3.38;;;;;;;;;;4795924;29;20054;-77
2023/04/14 05:01:07;;;;;;;12.27;2.83;;;;;;;;;;4809361;29;20595;-78
2023/04/14 05:03:34;;;;;;;7.97;2.63;;;;;;;;;;4817963;29;20461;-79
2023/04/14 05:06:00;;;;;;;9.02;3.58;;;;;;;;;;4820722;29;20340;-80
2023/04/14 05:08:26;;;;;;;9.63;2.38;;;;;;;;;;4813049;29;20027;-81
2023/04/14 05:10:58;;;;;;;15.10;2.63;;;;;;;;;;4818427;29;20125;-80
2023/04/14 05:13:42;;;;;;;8.23;2.83;;;;;;;;;;4810102;29;20045;-80
2023/04/14 05:16:38;;;;;;;9.70;2.45;;;;;;;;;;4825443;29;20035;-80
2023/04/14 05:19:05;;;;;;;10.95;3.58;;;;;;;;;;4797425;29;20421;-79
2023/04/14 05:21:31;;;;;;;20.83;2.85;;;;;;;;;;4818785;29;20420;-82
2023/04/14 05:23:59;;;;;;;14.18;2.63;;;;;;;;;;4811720;29;20050;-77
2023/04/14 05:26:25;;;;;;;13.77;2.50;;;;;;;;;;4823866;29;20437;-77
2023/04/14 05:28:51;;;;;;;17.25;8.40;;;;;;;;;;4814080;29;20483;-79
2023/04/14 05:31:17;;;;;;;11.70;3.10;;;;;;;;;;4814310;29;20129;-81
2023/04/14 05:33:43;;;;;;;12.43;4.45;;;;;;;;;;4808730;29;20448;-80
2023/04/14 05:36:31;;;;;;;14.23;3.30;;;;;;;;;;4812761;29;20495;-80
2023/04/14 05:42:01;;;;;;;5.63;3.17;;;;;;;;;;4861741;24;20056;-77
2023/04/14 05:44:39;;;;;;;10.73;2.55;;;;;;;;;;4829960;29;20057;-81
2023/04/14 05:47:05;;;;;;;10.90;3.17;;;;;;;;;;4841906;29;20169;-81
2023/04/14 05:49:33;;;;;;;8.40;2.53;;;;;;;;;;4823173;29;20040;-79
2023/04/14 05:52:00;;;;;;;16.95;4.07;;;;;;;;;;4849184;29;20065;-76
2023/04/14 05:54:26;;;;;;;23.20;4.90;;;;;;;;;;4843818;29;20037;-76
2023/04/14 05:57:07;;;;;;;76.80;36.42;;;;;;;;;;4824449;29;20061;-81
2023/04/14 05:59:33;;;;;;;15.98;5.65;;;;;;;;;;4840239;29;20559;-76
2023/04/14 06:02:03;;;;;;;8.88;3.05;;;;;;;;;;4842351;29;20044;-74
2023/04/14 06:07:37;;;;;;;6.60;2.65;;;;;;;;;;4849815;24;20072;-80
2023/04/14 06:41:31;;;;;;;9.48;2.75;;;;;;;;;;5846408;24;20046;-77
2023/04/14 06:43:57;;;;;;;7.80;2.33;;;;;;;;;;4853182;24;20373;-77
2023/04/14 06:46:26;;;;;;;10.05;2.25;;;;;;;;;;4826956;29;20039;-77
2023/04/14 06:48:53;;;;;;;9.82;3.13;;;;;;;;;;4827625;29;20038;-78
2023/04/14 06:51:22;;;;;;;7.88;2.67;;;;;;;;;;4823663;29;20661;-78
2023/04/14 06:53:48;;;;;;;8.55;2.72;;;;;;;;;;4825651;29;20107;-76
2023/04/14 07:03:25;;;;;;;15.48;6.55;;;;;;;;;;4738727;30;20040;-80
2023/04/14 07:05:51;;;;;;;77.63;40.22;;;;;;;;;;4737393;30;20060;-85
2023/04/14 07:08:36;;;;;;;14.95;6.88;;;;;;;;;;4720505;30;20051;-86
2023/04/14 07:14:36;;;;;;;6.78;2.70;;;;;;;;;;4740281;30;20063;-79
2023/04/14 07:17:29;;;;;;;8.85;2.58;;;;;;;;;;4757212;30;20560;-79
2023/04/14 07:36:06;;;;;;;6.05;2.22;;;;;;;;;;4823935;29;20118;-81
2023/04/14 07:39:05;;;;;;;8.32;2.78;;;;;;;;;;4827732;29;20057;-80
2023/04/14 07:41:31;;;;;;;15.48;7.13;;;;;;;;;;4833028;29;20566;-86
2023/04/14 07:43:58;;;;;;;32.47;13.13;;;;;;;;;;4854189;29;20111;-87
2023/04/14 07:46:24;;;;;;;10.80;3.72;;;;;;;;;;4834030;29;20032;-83
2023/04/14 07:51:45;;;;;;;5.97;2.72;;;;;;;;;;4821588;29;20097;-87
2023/04/14 07:54:12;;;;;;;10.02;2.65;;;;;;;;;;4828669;29;20144;-88
2023/04/14 07:56:38;;;;;;;7.43;1.90;;;;;;;;;;4843910;29;20030;-88
2023/04/14 07:59:04;;;;;;;8.23;2.20;;;;;;;;;;4845130;29;20026;-87
2023/04/14 08:01:30;;;;;;;13.07;2.60;;;;;;;;;;4828573;29;20162;-87
2023/04/14 08:03:57;;;;;;;13.02;1.95;;;;;;;;;;4847744;29;20058;-88
2023/04/14 08:06:23;;;;;;;7.80;2.35;;;;;;;;;;4836973;29;20392;-87
2023/04/14 08:08:49;;;;;;;7.65;2.10;;;;;;;;;;4834421;29;20033;-87
2023/04/14 08:11:15;;;;;;;7.13;2.00;;;;;;;;;;4838582;29;20087;-89
2023/04/14 08:13:42;;;;;;;13.10;2.60;;;;;;;;;;4840584;29;20034;-88
2023/04/14 08:16:08;;;;;;;10.43;2.35;;;;;;;;;;4844237;29;20138;-88
2023/04/14 08:18:34;;;;;;;7.50;2.42;;;;;;;;;;4844687;29;20452;-88
2023/04/14 08:21:00;;;;;;;8.07;2.15;;;;;;;;;;4834400;29;20817;-88
2023/04/14 08:23:26;;;;;;;7.32;2.20;;;;;;;;;;4854698;29;20040;-89
2023/04/14 08:25:52;;;;;;;9.82;2.50;;;;;;;;;;4850083;29;20037;-88
2023/04/14 08:28:18;;;;;;;9.05;2.08;;;;;;;;;;4846576;29;20038;-87
2023/04/14 08:30:46;;;;;;;8.95;2.50;;;;;;;;;;4832134;29;20276;-86
2023/04/14 08:33:12;;;;;;;14.95;3.00;;;;;;;;;;4847653;29;20046;-89
2023/04/14 08:35:38;;;;;;;9.63;2.28;;;;;;;;;;4831319;29;20117;-87
2023/04/14 08:38:04;;;;;;;10.32;2.25;;;;;;;;;;4846826;29;20038;-87
2023/04/14 08:40:41;;;;;;;11.00;2.92;;;;;;;;;;4835442;29;20035;-86
2023/04/14 08:43:07;;;;;;;12.10;2.22;;;;;;;;;;4860506;29;20030;-87
2023/04/14 08:45:34;;;;;;;11.00;3.10;;;;;;;;;;4848702;29;20120;-85
2023/04/14 08:48:01;;;;;;;8.23;2.35;;;;;;;;;;4851174;29;20048;-87
2023/04/14 08:50:32;;;;;;;8.00;2.17;;;;;;;;;;4858907;29;20036;-87
2023/04/14 08:53:00;;;;;;;10.35;2.45;;;;;;;;;;4841591;29;20054;-88
2023/04/14 08:55:26;;;;;;;8.98;3.00;;;;;;;;;;4842482;29;20537;-87
2023/04/14 08:57:53;;;;;;;7.38;2.22;;;;;;;;;;4841617;29;20204;-87
2023/04/14 09:00:19;;;;;;;8.98;2.05;;;;;;;;;;4824706;29;20460;-88
2023/04/14 09:02:45;;;;;;;10.15;2.30;;;;;;;;;;4853859;29;20033;-87
2023/04/14 09:05:12;;;;;;;6.97;2.10;;;;;;;;;;4846218;29;20069;-86
2023/04/14 09:07:38;;;;;;;5.95;2.13;;;;;;;;;;4840038;29;20459;-87
2023/04/14 09:10:05;;;;;;;9.50;2.78;;;;;;;;;;4821347;29;20044;-86
2023/04/14 09:12:31;;;;;;;8.45;2.10;;;;;;;;;;4847760;29;20472;-86
2023/04/14 09:14:58;;;;;;;5.90;1.73;;;;;;;;;;4841116;29;20082;-87
2023/04/14 09:17:28;;;;;;;11.55;2.00;;;;;;;;;;4847620;29;20042;-87
2023/04/14 09:19:54;;;;;;;9.43;2.40;;;;;;;;;;4843803;29;20038;-87
2023/04/14 09:22:21;;;;;;;9.45;2.17;;;;;;;;;;4824953;29;20054;-88
2023/04/14 09:24:47;;;;;;;6.53;1.75;;;;;;;;;;4844001;29;20054;-87
2023/04/14 09:27:14;;;;;;;6.75;1.92;;;;;;;;;;4841710;29;20037;-89
2023/04/14 09:29:41;;;;;;;9.98;2.08;;;;;;;;;;4838335;29;20456;-88
2023/04/14 09:32:07;;;;;;;11.10;1.88;;;;;;;;;;4836727;29;20030;-88
2023/04/14 09:34:34;;;;;;;5.32;1.77;;;;;;;;;;4826254;29;20064;-87
2023/04/14 09:37:06;;;;;;;5.05;1.52;;;;;;;;;;4852972;29;20431;-86
2023/04/14 09:39:33;;;;;;;7.93;2.70;;;;;;;;;;4834787;29;20042;-81
2023/04/14 09:42:00;;;;;;;16.15;8.82;;;;;;;;;;4827822;29;20152;-78
2023/04/14 09:44:27;;;;;;;11.00;3.20;;;;;;;;;;4843064;29;20034;-86
2023/04/14 09:47:05;;;;;;;9.18;1.60;;;;;;;;;;4831961;29;20030;-86
2023/04/14 09:52:37;;;;;;;6.43;1.60;;;;;;;;;;4792774;29;20079;-86
2023/04/14 09:55:06;;;;;;;6.43;1.48;;;;;;;;;;4831095;29;20502;-85
2023/04/14 09:57:33;;;;;;;7.97;2.00;;;;;;;;;;4832064;29;20117;-85
2023/04/14 10:00:00;;;;;;;7.43;1.50;;;;;;;;;;4814350;29;20055;-82
2023/04/14 10:02:47;;;;;;;6.75;1.65;;;;;;;;;;4836779;29;20030;-84
2023/04/14 10:05:13;;;;;;;10.02;1.88;;;;;;;;;;4843988;29;20038;-86
2023/04/14 10:07:42;;;;;;;6.10;1.63;;;;;;;;;;4832084;29;20022;-87
2023/04/14 10:16:37;;;;;;;9.05;1.92;;;;;;;;;;4790820;29;20175;-83
2023/04/14 10:19:24;;;;;;;8.93;2.13;;;;;;;;;;4763366;29;20064;-86
2023/04/14 10:22:43;;;;;;;6.38;1.60;;;;;;;;;;4783484;29;20058;-87
2023/04/14 10:25:38;;;;;;;7.40;1.90;;;;;;;;;;4760261;30;20398;-85
2023/04/14 10:28:16;;;;;;;8.05;1.90;;;;;;;;;;4729424;30;20123;-84
2023/04/14 10:30:45;;;;;;;7.03;1.38;;;;;;;;;;4728092;30;20040;-84
2023/04/14 10:33:11;;;;;;;8.73;4.25;;;;;;;;;;4834537;29;20053;-81
2023/04/14 10:35:42;;;;;;;9.43;4.32;;;;;;;;;;4833957;29;20040;-82
2023/04/14 10:38:08;;;;;;;4.78;1.40;;;;;;;;;;4830865;29;20038;-83
2023/04/14 10:40:47;;;;;;;5.75;1.70;;;;;;;;;;4828850;29;20026;-82
2023/04/14 10:43:13;;;;;;;7.47;1.77;;;;;;;;;;4833624;29;20472;-83
2023/04/14 10:46:08;;;;;;;3.20;1.15;;;;;;;;;;4832100;29;20037;-82
2023/04/14 10:48:38;;;;;;;7.07;1.50;;;;;;;;;;4824613;29;20042;-81
2023/04/14 10:51:06;;;;;;;7.88;2.20;;;;;;;;;;4832511;29;20049;-82
2023/04/14 10:53:45;;;;;;;7.95;2.22;;;;;;;;;;4828477;29;20048;-83
2023/04/14 10:56:11;;;;;;;6.10;1.80;;;;;;;;;;4826478;29;20049;-83
2023/04/14 10:58:37;;;;;;;4.35;1.35;;;;;;;;;;4835600;29;20029;-83
2023/04/14 11:01:23;;;;;;;7.07;1.70;;;;;;;;;;4836690;29;20030;-83
2023/04/14 11:03:49;;;;;;;3.28;1.10;;;;;;;;;;4837947;29;20467;-83
2023/04/14 11:06:35;;;;;;;6.45;1.60;;;;;;;;;;4824854;29;20112;-83
2023/04/14 11:09:02;;;;;;;7.15;1.25;;;;;;;;;;4839319;29;20029;-83
2023/04/14 11:11:28;;;;;;;9.05;1.58;;;;;;;;;;4830003;29;20026;-84
2023/04/14 11:14:10;;;;;;;7.05;1.50;;;;;;;;;;4830656;29;20472;-83
2023/04/14 11:16:39;;;;;;;6.55;1.52;;;;;;;;;;4837467;29;20030;-83
2023/04/14 11:19:13;;;;;;;3.67;1.20;;;;;;;;;;4838773;29;20026;-83
2023/04/14 11:21:48;;;;;;;6.85;1.85;;;;;;;;;;4834992;29;20064;-83
2023/04/14 11:24:15;;;;;;;6.50;1.50;;;;;;;;;;4834479;29;20122;-83
2023/04/14 11:26:41;;;;;;;5.72;1.27;;;;;;;;;;4841239;29;20490;-83
2023/04/14 11:29:08;;;;;;;6.88;1.33;;;;;;;;;;4838714;29;20025;-85
2023/04/14 11:31:34;;;;;;;6.43;1.30;;;;;;;;;;4831198;29;20472;-82
2023/04/14 11:34:03;;;;;;;8.80;1.35;;;;;;;;;;4837125;29;20030;-84
2023/04/14 11:36:31;;;;;;;9.13;1.42;;;;;;;;;;4833121;29;20058;-83
2023/04/14 11:38:58;;;;;;;9.65;1.73;;;;;;;;;;4851159;29;20166;-83
2023/04/14 11:41:25;;;;;;;5.03;1.38;;;;;;;;;;4840935;29;20112;-83
2023/04/14 11:43:51;;;;;;;6.50;1.17;;;;;;;;;;4837737;29;20037;-84
2023/04/14 11:46:21;;;;;;;7.80;1.63;;;;;;;;;;4834283;29;20030;-84
2023/04/14 11:48:47;;;;;;;8.02;1.80;;;;;;;;;;4844135;29;20455;-84
2023/04/14 11:51:13;;;;;;;6.68;1.40;;;;;;;;;;4828012;29;20444;-85
2023/04/14 11:53:39;;;;;;;4.93;1.45;;;;;;;;;;4843541;29;20065;-84
2023/04/14 11:56:11;;;;;;;3.17;1.52;;;;;;;;;;4840229;29;20420;-84
2023/04/14 11:58:37;;;;;;;4.15;1.20;;;;;;;;;;4841848;29;20468;-85
2023/04/14 12:01:03;;;;;;;6.07;1.42;;;;;;;;;;4832728;29;20413;-84
2023/04/14 12:03:34;;;;;;;6.82;1.35;;;;;;;;;;4847552;29;20030;-84
2023/04/14 12:06:00;;;;;;;6.13;1.48;;;;;;;;;;4818444;29;20030;-84
2023/04/14 12:08:29;;;;;;;4.00;1.20;;;;;;;;;;4840269;29;20460;-84
2023/04/14 12:10:56;;;;;;;6.45;1.42;;;;;;;;;;4842147;29;20376;-86
2023/04/14 12:13:22;;;;;;;8.20;2.38;;;;;;;;;;4840089;29;20091;-85
2023/04/14 12:15:48;;;;;;;3.60;1.42;;;;;;;;;;4839655;29;20412;-84
2023/04/14 12:18:14;;;;;;;6.75;1.20;;;;;;;;;;4855181;29;20471;-83
2023/04/14 12:20:41;;;;;;;5.88;1.60;;;;;;;;;;4845222;29;20466;-84
2023/04/14 12:23:08;;;;;;;4.60;1.17;;;;;;;;;;4847305;29;20033;-85
2023/04/14 12:25:34;;;;;;;6.70;1.58;;;;;;;;;;4832543;29;20113;-85
2023/04/14 12:28:06;;;;;;;6.13;1.60;;;;;;;;;;4841406;29;20025;-86
2023/04/14 12:30:32;;;;;;;8.27;2.63;;;;;;;;;;4835446;29;20070;-84
2023/04/14 12:32:58;;;;;;;5.90;1.95;;;;;;;;;;4828276;29;20037;-83
2023/04/14 12:35:24;;;;;;;9.65;1.58;;;;;;;;;;4828705;29;20030;-83
2023/04/14 12:37:51;;;;;;;5.97;1.60;;;;;;;;;;4841172;29;20018;-83
2023/04/14 12:40:19;;;;;;;4.65;1.60;;;;;;;;;;4835893;29;20038;-84
2023/04/14 12:42:52;;;;;;;6.22;1.73;;;;;;;;;;4840252;29;20033;-83
2023/04/14 12:45:19;;;;;;;4.45;2.03;;;;;;;;;;4840699;29;20022;-83
2023/04/14 12:47:55;;;;;;;8.00;2.00;;;;;;;;;;4842049;29;20170;-83
2023/04/14 12:50:25;;;;;;;7.95;1.95;;;;;;;;;;4839251;29;20033;-83
2023/04/14 12:52:52;;;;;;;6.70;1.38;;;;;;;;;;4840861;29;20471;-83
2023/04/14 12:55:22;;;;;;;8.90;1.70;;;;;;;;;;4831623;29;20038;-87
2023/04/14 12:57:54;;;;;;;6.15;1.02;;;;;;;;;;4841541;29;20501;-85
2023/04/14 13:00:21;;;;;;;5.70;1.42;;;;;;;;;;4832683;29;20030;-82
2023/04/14 13:03:12;;;;;;;8.80;1.50;;;;;;;;;;4837750;29;20556;-83
2023/04/14 13:05:38;;;;;;;3.88;1.30;;;;;;;;;;4833261;29;20069;-82
2023/04/14 13:08:04;;;;;;;57.40;31.75;;;;;;;;;;4844594;29;20026;-84
2023/04/14 13:10:30;;;;;;;8.20;3.20;;;;;;;;;;4832018;29;20041;-85
2023/04/14 13:12:56;;;;;;;7.72;1.90;;;;;;;;;;4841177;29;20034;-86
2023/04/14 13:15:22;;;;;;;5.22;1.20;;;;;;;;;;4838726;29;20036;-85
2023/04/14 13:17:48;;;;;;;5.10;1.25;;;;;;;;;;4841890;29;20042;-87
2023/04/14 13:20:14;;;;;;;8.07;1.38;;;;;;;;;;4843128;29;20091;-86
2023/04/14 13:22:46;;;;;;;5.18;1.13;;;;;;;;;;4826547;29;20056;-85
2023/04/14 13:25:12;;;;;;;7.60;1.83;;;;;;;;;;4837141;29;20082;-74
2023/04/14 13:27:39;;;;;;;3.40;1.27;;;;;;;;;;4845969;29;20042;-73
2023/04/14 13:30:05;;;;;;;13.98;3.35;;;;;;;;;;4836182;29;20034;-72
2023/04/14 13:32:31;;;;;;;5.55;1.40;;;;;;;;;;4839414;29;20041;-73
2023/04/14 13:34:57;;;;;;;7.88;1.30;;;;;;;;;;4821418;29;20031;-72
2023/04/14 13:37:23;;;;;;;9.63;4.53;;;;;;;;;;4832192;29;20492;-76
2023/04/14 13:43:15;;;;;;;4.68;1.15;;;;;;;;;;4769294;29;20132;-88
2023/04/14 13:45:41;;;;;;;5.97;1.45;;;;;;;;;;4832546;29;20164;-83
2023/04/14 13:48:07;;;;;;;7.63;1.85;;;;;;;;;;4815344;29;20048;-83
2023/04/14 13:50:33;;;;;;;9.02;1.98;;;;;;;;;;4812858;29;20034;-81
2023/04/14 13:52:59;;;;;;;5.60;1.23;;;;;;;;;;4833494;29;20432;-82
2023/04/14 13:55:25;;;;;;;7.32;1.33;;;;;;;;;;4829473;29;20068;-84
2023/04/14 13:57:51;;;;;;;5.90;1.20;;;;;;;;;;4827783;29;20062;-82
2023/04/14 14:00:18;;;;;;;5.20;2.33;;;;;;;;;;4832793;29;21098;-82
2023/04/14 14:02:46;;;;;;;6.47;1.92;;;;;;;;;;4826021;29;20038;-81
2023/04/14 14:05:14;;;;;;;6.53;1.83;;;;;;;;;;4829565;29;20103;-78
2023/04/14 14:07:40;;;;;;;7.78;1.90;;;;;;;;;;4829322;29;20034;-80
2023/04/14 14:10:12;;;;;;;10.80;5.75;;;;;;;;;;4811773;29;20041;-77
2023/04/14 14:12:38;;;;;;;17.83;7.00;;;;;;;;;;4834595;29;20534;-78
2023/04/14 14:15:05;;;;;;;7.13;2.88;;;;;;;;;;4828529;29;20033;-81
2023/04/14 14:17:31;;;;;;;4.63;1.40;;;;;;;;;;4830929;29;20128;-86
2023/04/14 14:19:58;;;;;;;3.65;0.98;;;;;;;;;;4838156;29;20117;-87
2023/04/14 14:22:24;;;;;;;4.32;0.95;;;;;;;;;;4834838;29;20034;-88
2023/04/14 14:24:50;;;;;;;4.78;1.02;;;;;;;;;;4835080;29;20030;-86
2023/04/14 14:27:16;;;;;;;2.38;1.05;;;;;;;;;;4839521;29;20544;-86
2023/04/14 14:29:42;;;;;;;8.20;1.02;;;;;;;;;;4825204;29;20502;-87
2023/04/14 14:32:08;;;;;;;4.13;1.13;;;;;;;;;;4824127;29;20073;-87
2023/04/14 14:34:34;;;;;;;6.63;1.20;;;;;;;;;;4840854;29;20456;-86
2023/04/14 14:37:00;;;;;;;9.32;1.63;;;;;;;;;;4851849;29;20045;-86
2023/04/14 14:39:29;;;;;;;4.38;1.40;;;;;;;;;;4846938;29;20026;-87
2023/04/14 14:41:55;;;;;;;4.88;1.17;;;;;;;;;;4846341;29;20033;-87
2023/04/14 14:44:21;;;;;;;4.45;1.38;;;;;;;;;;4857957;29;20038;-87
2023/04/14 14:46:47;;;;;;;6.63;1.38;;;;;;;;;;4844975;29;20034;-87
2023/04/14 14:49:13;;;;;;;7.03;1.30;;;;;;;;;;4841750;29;20029;-87
2023/04/14 14:51:39;;;;;;;3.95;0.77;;;;;;;;;;4817570;29;20126;-87
2023/04/14 14:54:06;;;;;;;3.17;1.08;;;;;;;;;;4843741;29;20488;-87
2023/04/14 14:56:34;;;;;;;4.30;1.20;;;;;;;;;;4828735;29;20038;-86
2023/04/14 14:59:00;;;;;;;5.35;1.52;;;;;;;;;;4836506;29;20058;-86
2023/04/14 15:01:26;;;;;;;3.90;1.20;;;;;;;;;;4820727;29;20031;-87
2023/04/14 15:03:53;;;;;;;5.43;1.35;;;;;;;;;;4836707;29;20130;-85
2023/04/14 15:06:19;;;;;;;5.47;1.17;;;;;;;;;;4849460;29;20116;-87
2023/04/14 15:08:45;;;;;;;5.50;1.67;;;;;;;;;;4836727;29;20433;-73
2023/04/14 15:11:12;;;;;;;6.05;1.10;;;;;;;;;;4831337;29;20126;-81
2023/04/14 15:13:53;;;;;;;3.08;1.33;;;;;;;;;;4817618;29;20058;-85
2023/04/14 15:16:25;;;;;;;5.22;1.33;;;;;;;;;;4836493;29;20112;-77
2023/04/14 15:18:51;;;;;;;5.75;1.38;;;;;;;;;;4853029;29;20038;-81
2023/04/14 15:21:17;;;;;;;3.40;0.90;;;;;;;;;;4815309;29;20026;-87
2023/04/14 15:23:44;;;;;;;36.80;24.85;;;;;;;;;;4829154;29;20145;-83
2023/04/14 15:26:18;;;;;;;23.42;10.52;;;;;;;;;;4831040;29;20030;-83
2023/04/14 15:28:46;;;;;;;3.28;1.20;;;;;;;;;;4823237;29;20392;-84
2023/04/14 15:31:12;;;;;;;2.55;0.80;;;;;;;;;;4828763;29;20026;-87
2023/04/14 15:33:40;;;;;;;5.03;1.20;;;;;;;;;;4845774;29;20041;-89
2023/04/14 15:36:06;;;;;;;4.15;0.98;;;;;;;;;;4835855;29;20053;-90
2023/04/14 15:38:32;;;;;;;7.07;1.13;;;;;;;;;;4845204;29;20029;-87
2023/04/14 15:40:59;;;;;;;5.30;0.90;;;;;;;;;;4834899;29;20393;-88
2023/04/14 15:43:26;;;;;;;3.10;0.93;;;;;;;;;;4828609;29;20722;-87
2023/04/14 15:45:52;;;;;;;3.25;1.00;;;;;;;;;;4832924;29;20026;-85
2023/04/14 15:48:18;;;;;;;4.47;1.17;;;;;;;;;;4838589;29;20057;-84
2023/04/14 15:55:12;;;;;;;2.97;1.15;;;;;;;;;;4759498;30;20051;-86
2023/04/14 15:57:12;;;;;;;3.85;0.93;;;;;;;;;;4705332;30;20492;-85
2023/04/14 15:59:38;;;;;;;3.28;1.02;;;;;;;;;;4741565;30;20037;-85
2023/04/14 16:02:04;;;;;;;5.85;1.30;;;;;;;;;;4778167;29;20114;-88
2023/04/14 16:04:33;;;;;;;5.63;1.10;;;;;;;;;;4810783;29;20033;-86
2023/04/14 16:07:17;;;;;;;7.03;1.20;;;;;;;;;;4845073;29;20094;-89
2023/04/14 16:09:44;;;;;;;5.00;1.42;;;;;;;;;;4853008;29;20571;-88
2023/04/14 16:12:13;;;;;;;4.25;1.80;;;;;;;;;;4844447;29;20041;-88
2023/04/14 16:15:10;;;;;;;5.35;1.17;;;;;;;;;;4827140;29;20038;-82
2023/04/14 16:18:03;;;;;;;4.50;1.10;;;;;;;;;;4844709;29;20128;-82
2023/04/14 16:20:50;;;;;;;9.38;1.25;;;;;;;;;;4841279;29;20038;-83
2023/04/14 16:23:16;;;;;;;8.77;3.92;;;;;;;;;;4824715;29;20042;-79
2023/04/14 16:26:02;;;;;;;9.80;2.20;;;;;;;;;;4824764;29;20144;-79
2023/04/14 16:28:28;;;;;;;4.03;1.42;;;;;;;;;;4836036;29;20168;-87
2023/04/14 16:30:58;;;;;;;7.28;1.13;;;;;;;;;;4840785;29;20034;-86
2023/04/14 16:33:24;;;;;;;2.88;1.05;;;;;;;;;;4851724;29;20042;-86
2023/04/14 16:35:50;;;;;;;6.38;1.52;;;;;;;;;;4843249;29;20030;-85
2023/04/14 16:38:17;;;;;;;5.68;1.45;;;;;;;;;;4830250;29;20057;-85
2023/04/14 16:40:43;;;;;;;8.65;1.80;;;;;;;;;;4835072;29;20030;-85
2023/04/14 16:43:09;;;;;;;4.30;1.17;;;;;;;;;;4841275;29;20510;-86